sensor_id;sensor_type;location;lat;lon;timestamp;P1;durP1;ratioP1;P2;durP2;ratioP2
52858;SDS011;38721;53.098;6.596;2023-06-04T00:01:44;6.07;;;4.07;;
52858;SDS011;38721;53.098;6.596;2023-06-04T00:04:11;11.05;;;4.20;;
52858;SDS011;38721;53.098;6.596;2023-06-04T00:06:37;9.52;;;4.40;;
52858;SDS011;38721;53.098;6.596;2023-06-04T00:09:02;7.05;;;4.43;;
52858;SDS011;38721;53.098;6.596;2023-06-04T00:11:35;10.38;;;4.65;;
52858;SDS011;38721;53.098;6.596;2023-06-04T00:14:01;10.68;;;5.40;;
52858;SDS011;38721;53.098;6.596;2023-06-04T00:16:30;8.52;;;4.80;;
52858;SDS011;38721;53.098;6.596;2023-06-04T00:18:55;7.43;;;4.53;;
52858;SDS011;38721;53.098;6.596;2023-06-04T00:21:21;11.82;;;4.22;;
52858;SDS011;38721;53.098;6.596;2023-06-04T00:23:47;9.55;;;4.28;;
52858;SDS011;38721;53.098;6.596;2023-06-04T00:26:12;10.18;;;4.80;;
52858;SDS011;38721;53.098;6.596;2023-06-04T00:28:38;9.68;;;5.00;;
52858;SDS011;38721;53.098;6.596;2023-06-04T00:31:04;9.30;;;4.85;;
52858;SDS011;38721;53.098;6.596;2023-06-04T00:33:31;8.23;;;4.30;;
52858;SDS011;38721;53.098;6.596;2023-06-04T00:35:56;8.65;;;4.72;;
52858;SDS011;38721;53.098;6.596;2023-06-04T00:38:22;9.07;;;4.35;;
52858;SDS011;38721;53.098;6.596;2023-06-04T00:40:48;8.07;;;4.60;;
52858;SDS011;38721;53.098;6.596;2023-06-04T00:43:14;6.72;;;3.85;;
52858;SDS011;38721;53.098;6.596;2023-06-04T00:45:40;12.13;;;5.07;;
52858;SDS011;38721;53.098;6.596;2023-06-04T00:48:07;9.75;;;5.03;;
52858;SDS011;38721;53.098;6.596;2023-06-04T00:50:32;9.80;;;5.78;;
52858;SDS011;38721;53.098;6.596;2023-06-04T00:53:00;12.57;;;5.45;;
52858;SDS011;38721;53.098;6.596;2023-06-04T00:55:26;8.40;;;5.10;;
52858;SDS011;38721;53.098;6.596;2023-06-04T00:57:55;12.82;;;5.53;;
52858;SDS011;38721;53.098;6.596;2023-06-04T01:00:21;11.77;;;5.57;;
52858;SDS011;38721;53.098;6.596;2023-06-04T01:02:47;10.10;;;6.18;;
52858;SDS011;38721;53.098;6.596;2023-06-04T01:08:13;12.82;;;5.28;;
52858;SDS011;38721;53.098;6.596;2023-06-04T01:10:50;12.55;;;5.55;;
52858;SDS011;38721;53.098;6.596;2023-06-04T01:13:20;11.90;;;5.82;;
52858;SDS011;38721;53.098;6.596;2023-06-04T01:15:48;12.57;;;5.97;;
52858;SDS011;38721;53.098;6.596;2023-06-04T01:18:24;14.88;;;5.38;;
52858;SDS011;38721;53.098;6.596;2023-06-04T01:21:08;10.80;;;5.30;;
52858;SDS011;38721;53.098;6.596;2023-06-04T01:23:40;12.43;;;5.45;;
52858;SDS011;38721;53.098;6.596;2023-06-04T01:26:14;11.18;;;5.30;;
52858;SDS011;38721;53.098;6.596;2023-06-04T01:28:40;13.98;;;6.07;;
52858;SDS011;38721;53.098;6.596;2023-06-04T01:31:08;12.65;;;6.10;;
52858;SDS011;38721;53.098;6.596;2023-06-04T01:33:34;12.23;;;6.25;;
52858;SDS011;38721;53.098;6.596;2023-06-04T01:36:00;12.68;;;6.25;;
52858;SDS011;38721;53.098;6.596;2023-06-04T01:38:27;13.57;;;6.07;;
52858;SDS011;38721;53.098;6.596;2023-06-04T01:40:53;11.93;;;5.80;;
52858;SDS011;38721;53.098;6.596;2023-06-04T01:43:25;10.80;;;5.85;;
52858;SDS011;38721;53.098;6.596;2023-06-04T01:45:52;16.85;;;6.57;;
52858;SDS011;38721;53.098;6.596;2023-06-04T01:48:19;11.25;;;6.35;;
52858;SDS011;38721;53.098;6.596;2023-06-04T01:50:45;11.68;;;6.25;;
52858;SDS011;38721;53.098;6.596;2023-06-04T01:53:11;16.27;;;6.70;;
52858;SDS011;38721;53.098;6.596;2023-06-04T01:55:36;13.07;;;6.97;;
52858;SDS011;38721;53.098;6.596;2023-06-04T01:58:03;15.38;;;7.25;;
52858;SDS011;38721;53.098;6.596;2023-06-04T02:00:28;17.20;;;7.18;;
52858;SDS011;38721;53.098;6.596;2023-06-04T02:02:54;13.63;;;6.90;;
52858;SDS011;38721;53.098;6.596;2023-06-04T02:05:21;13.10;;;7.18;;
52858;SDS011;38721;53.098;6.596;2023-06-04T02:07:47;13.15;;;7.18;;
52858;SDS011;38721;53.098;6.596;2023-06-04T02:10:17;14.07;;;8.05;;
52858;SDS011;38721;53.098;6.596;2023-06-04T02:12:54;14.20;;;7.80;;
52858;SDS011;38721;53.098;6.596;2023-06-04T02:15:22;16.38;;;7.38;;
52858;SDS011;38721;53.098;6.596;2023-06-04T02:17:48;13.35;;;7.25;;
52858;SDS011;38721;53.098;6.596;2023-06-04T02:20:15;10.05;;;6.03;;
52858;SDS011;38721;53.098;6.596;2023-06-04T02:22:41;9.73;;;5.68;;
52858;SDS011;38721;53.098;6.596;2023-06-04T02:25:08;12.75;;;5.72;;
52858;SDS011;38721;53.098;6.596;2023-06-04T02:27:36;13.50;;;6.72;;
52858;SDS011;38721;53.098;6.596;2023-06-04T02:30:02;12.85;;;7.00;;
52858;SDS011;38721;53.098;6.596;2023-06-04T02:32:28;12.27;;;6.50;;
52858;SDS011;38721;53.098;6.596;2023-06-04T02:34:54;25.95;;;6.07;;
52858;SDS011;38721;53.098;6.596;2023-06-04T02:37:21;43.03;;;7.43;;
52858;SDS011;38721;53.098;6.596;2023-06-04T02:39:47;61.50;;;8.77;;
52858;SDS011;38721;53.098;6.596;2023-06-04T02:42:13;8.18;;;5.28;;
52858;SDS011;38721;53.098;6.596;2023-06-04T02:44:39;15.02;;;7.15;;
52858;SDS011;38721;53.098;6.596;2023-06-04T02:47:04;17.63;;;9.05;;
52858;SDS011;38721;53.098;6.596;2023-06-04T02:49:30;18.08;;;8.73;;
52858;SDS011;38721;53.098;6.596;2023-06-04T02:51:56;24.05;;;9.75;;
52858;SDS011;38721;53.098;6.596;2023-06-04T02:54:22;16.13;;;8.05;;
52858;SDS011;38721;53.098;6.596;2023-06-04T02:56:47;9.55;;;5.55;;
52858;SDS011;38721;53.098;6.596;2023-06-04T02:59:16;112.85;;;13.18;;
52858;SDS011;38721;53.098;6.596;2023-06-04T03:01:42;12.93;;;7.05;;
52858;SDS011;38721;53.098;6.596;2023-06-04T03:04:08;8.65;;;5.90;;
52858;SDS011;38721;53.098;6.596;2023-06-04T03:06:35;11.52;;;7.00;;
52858;SDS011;38721;53.098;6.596;2023-06-04T03:09:04;281.27;;;16.35;;
52858;SDS011;38721;53.098;6.596;2023-06-04T03:11:30;9.25;;;6.55;;
52858;SDS011;38721;53.098;6.596;2023-06-04T03:13:56;11.55;;;6.60;;
52858;SDS011;38721;53.098;6.596;2023-06-04T03:16:21;34.47;;;9.52;;
52858;SDS011;38721;53.098;6.596;2023-06-04T03:18:47;19.90;;;9.00;;
52858;SDS011;38721;53.098;6.596;2023-06-04T03:21:13;22.73;;;9.65;;
52858;SDS011;38721;53.098;6.596;2023-06-04T03:23:39;13.85;;;9.30;;
52858;SDS011;38721;53.098;6.596;2023-06-04T03:26:05;13.48;;;7.85;;
52858;SDS011;38721;53.098;6.596;2023-06-04T03:28:32;21.65;;;8.80;;
52858;SDS011;38721;53.098;6.596;2023-06-04T03:31:01;25.30;;;8.90;;
52858;SDS011;38721;53.098;6.596;2023-06-04T03:33:27;23.10;;;10.45;;
52858;SDS011;38721;53.098;6.596;2023-06-04T03:35:53;16.50;;;9.70;;
52858;SDS011;38721;53.098;6.596;2023-06-04T03:38:19;16.02;;;9.02;;
52858;SDS011;38721;53.098;6.596;2023-06-04T03:40:45;13.27;;;9.20;;
52858;SDS011;38721;53.098;6.596;2023-06-04T03:43:11;13.77;;;8.63;;
52858;SDS011;38721;53.098;6.596;2023-06-04T03:45:36;16.48;;;9.23;;
52858;SDS011;38721;53.098;6.596;2023-06-04T03:48:05;12.98;;;7.93;;
52858;SDS011;38721;53.098;6.596;2023-06-04T03:50:31;16.00;;;8.77;;
52858;SDS011;38721;53.098;6.596;2023-06-04T03:52:57;19.42;;;10.13;;
52858;SDS011;38721;53.098;6.596;2023-06-04T03:55:23;13.80;;;7.85;;
52858;SDS011;38721;53.098;6.596;2023-06-04T03:57:49;21.05;;;9.13;;
52858;SDS011;38721;53.098;6.596;2023-06-04T04:00:15;60.83;;;11.02;;
52858;SDS011;38721;53.098;6.596;2023-06-04T04:02:44;42.55;;;11.63;;
52858;SDS011;38721;53.098;6.596;2023-06-04T04:05:09;20.60;;;10.35;;
52858;SDS011;38721;53.098;6.596;2023-06-04T04:07:36;20.25;;;9.05;;
52858;SDS011;38721;53.098;6.596;2023-06-04T04:10:01;31.08;;;10.80;;
52858;SDS011;38721;53.098;6.596;2023-06-04T04:12:27;21.98;;;10.38;;
52858;SDS011;38721;53.098;6.596;2023-06-04T04:14:53;18.08;;;10.23;;
52858;SDS011;38721;53.098;6.596;2023-06-04T04:17:19;18.02;;;9.52;;
52858;SDS011;38721;53.098;6.596;2023-06-04T04:19:44;13.98;;;9.80;;
52858;SDS011;38721;53.098;6.596;2023-06-04T04:22:13;18.25;;;9.85;;
52858;SDS011;38721;53.098;6.596;2023-06-04T04:24:42;16.50;;;9.27;;
52858;SDS011;38721;53.098;6.596;2023-06-04T04:27:09;17.00;;;8.75;;
52858;SDS011;38721;53.098;6.596;2023-06-04T04:29:38;21.38;;;9.68;;
52858;SDS011;38721;53.098;6.596;2023-06-04T04:32:04;18.83;;;9.40;;
52858;SDS011;38721;53.098;6.596;2023-06-04T04:34:36;15.57;;;10.55;;
52858;SDS011;38721;53.098;6.596;2023-06-04T04:37:05;22.98;;;11.40;;
52858;SDS011;38721;53.098;6.596;2023-06-04T04:39:34;22.05;;;11.70;;
52858;SDS011;38721;53.098;6.596;2023-06-04T04:42:03;17.52;;;10.55;;
52858;SDS011;38721;53.098;6.596;2023-06-04T04:44:29;14.50;;;9.57;;
52858;SDS011;38721;53.098;6.596;2023-06-04T04:46:57;16.73;;;8.98;;
52858;SDS011;38721;53.098;6.596;2023-06-04T04:49:23;18.10;;;9.18;;
52858;SDS011;38721;53.098;6.596;2023-06-04T04:51:49;13.27;;;8.88;;
52858;SDS011;38721;53.098;6.596;2023-06-04T04:54:16;19.08;;;8.93;;
52858;SDS011;38721;53.098;6.596;2023-06-04T04:56:42;15.68;;;9.18;;
52858;SDS011;38721;53.098;6.596;2023-06-04T04:59:08;16.63;;;8.70;;
52858;SDS011;38721;53.098;6.596;2023-06-04T05:01:33;17.00;;;8.48;;
52858;SDS011;38721;53.098;6.596;2023-06-04T05:03:59;15.90;;;7.53;;
52858;SDS011;38721;53.098;6.596;2023-06-04T05:06:28;15.48;;;7.13;;
52858;SDS011;38721;53.098;6.596;2023-06-04T05:08:53;12.38;;;7.35;;
52858;SDS011;38721;53.098;6.596;2023-06-04T05:11:19;11.65;;;7.50;;
52858;SDS011;38721;53.098;6.596;2023-06-04T05:13:46;13.48;;;7.57;;
52858;SDS011;38721;53.098;6.596;2023-06-04T05:16:12;13.35;;;6.90;;
52858;SDS011;38721;53.098;6.596;2023-06-04T05:18:38;13.98;;;7.30;;
52858;SDS011;38721;53.098;6.596;2023-06-04T05:21:09;14.60;;;8.20;;
52858;SDS011;38721;53.098;6.596;2023-06-04T05:23:37;11.98;;;6.85;;
52858;SDS011;38721;53.098;6.596;2023-06-04T05:26:04;13.00;;;7.85;;
52858;SDS011;38721;53.098;6.596;2023-06-04T05:28:30;17.75;;;8.07;;
52858;SDS011;38721;53.098;6.596;2023-06-04T05:31:01;14.70;;;7.40;;
52858;SDS011;38721;53.098;6.596;2023-06-04T05:33:28;14.40;;;8.10;;
52858;SDS011;38721;53.098;6.596;2023-06-04T05:35:55;16.60;;;7.60;;
52858;SDS011;38721;53.098;6.596;2023-06-04T05:38:25;15.27;;;7.95;;
52858;SDS011;38721;53.098;6.596;2023-06-04T05:40:53;16.10;;;7.93;;
52858;SDS011;38721;53.098;6.596;2023-06-04T05:43:19;12.15;;;7.15;;
52858;SDS011;38721;53.098;6.596;2023-06-04T05:45:45;13.40;;;7.80;;
52858;SDS011;38721;53.098;6.596;2023-06-04T05:48:11;12.85;;;7.00;;
52858;SDS011;38721;53.098;6.596;2023-06-04T05:50:37;13.27;;;6.75;;
52858;SDS011;38721;53.098;6.596;2023-06-04T05:53:02;17.30;;;7.15;;
52858;SDS011;38721;53.098;6.596;2023-06-04T05:55:28;15.38;;;6.55;;
52858;SDS011;38721;53.098;6.596;2023-06-04T05:57:57;15.07;;;6.50;;
52858;SDS011;38721;53.098;6.596;2023-06-04T06:00:22;17.75;;;6.88;;
52858;SDS011;38721;53.098;6.596;2023-06-04T06:02:51;11.70;;;5.18;;
52858;SDS011;38721;53.098;6.596;2023-06-04T06:05:17;9.25;;;4.57;;
52858;SDS011;38721;53.098;6.596;2023-06-04T06:07:44;12.55;;;5.20;;
52858;SDS011;38721;53.098;6.596;2023-06-04T06:10:11;11.68;;;4.80;;
52858;SDS011;38721;53.098;6.596;2023-06-04T06:12:37;8.88;;;4.63;;
52858;SDS011;38721;53.098;6.596;2023-06-04T06:15:02;9.98;;;4.28;;
52858;SDS011;38721;53.098;6.596;2023-06-04T06:17:29;9.65;;;4.00;;
52858;SDS011;38721;53.098;6.596;2023-06-04T06:19:55;10.27;;;4.03;;
52858;SDS011;38721;53.098;6.596;2023-06-04T06:22:21;8.88;;;4.07;;
52858;SDS011;38721;53.098;6.596;2023-06-04T06:24:47;9.18;;;3.70;;
52858;SDS011;38721;53.098;6.596;2023-06-04T06:27:16;12.95;;;4.55;;
52858;SDS011;38721;53.098;6.596;2023-06-04T06:29:42;7.45;;;4.43;;
52858;SDS011;38721;53.098;6.596;2023-06-04T06:32:08;9.30;;;3.95;;
52858;SDS011;38721;53.098;6.596;2023-06-04T06:34:37;8.10;;;3.63;;
52858;SDS011;38721;53.098;6.596;2023-06-04T06:37:03;11.85;;;5.03;;
52858;SDS011;38721;53.098;6.596;2023-06-04T06:39:30;11.52;;;3.53;;
52858;SDS011;38721;53.098;6.596;2023-06-04T06:41:57;11.98;;;3.97;;
52858;SDS011;38721;53.098;6.596;2023-06-04T06:44:22;7.35;;;3.47;;
52858;SDS011;38721;53.098;6.596;2023-06-04T06:46:48;8.48;;;2.65;;
52858;SDS011;38721;53.098;6.596;2023-06-04T06:49:14;5.93;;;2.47;;
52858;SDS011;38721;53.098;6.596;2023-06-04T06:51:40;7.03;;;2.78;;
52858;SDS011;38721;53.098;6.596;2023-06-04T06:54:08;6.68;;;2.65;;
52858;SDS011;38721;53.098;6.596;2023-06-04T06:56:33;7.35;;;2.53;;
52858;SDS011;38721;53.098;6.596;2023-06-04T06:58:59;8.48;;;2.42;;
52858;SDS011;38721;53.098;6.596;2023-06-04T07:01:25;6.47;;;2.55;;
52858;SDS011;38721;53.098;6.596;2023-06-04T07:03:51;9.55;;;2.45;;
52858;SDS011;38721;53.098;6.596;2023-06-04T07:06:17;7.93;;;2.55;;
52858;SDS011;38721;53.098;6.596;2023-06-04T07:08:43;8.00;;;2.67;;
52858;SDS011;38721;53.098;6.596;2023-06-04T07:11:08;8.23;;;2.58;;
52858;SDS011;38721;53.098;6.596;2023-06-04T07:13:37;5.63;;;2.50;;
52858;SDS011;38721;53.098;6.596;2023-06-04T07:16:03;7.47;;;2.25;;
52858;SDS011;38721;53.098;6.596;2023-06-04T07:18:29;4.28;;;2.15;;
52858;SDS011;38721;53.098;6.596;2023-06-04T07:20:55;5.47;;;2.20;;
52858;SDS011;38721;53.098;6.596;2023-06-04T07:23:20;4.60;;;2.00;;
52858;SDS011;38721;53.098;6.596;2023-06-04T07:25:46;4.60;;;2.10;;
52858;SDS011;38721;53.098;6.596;2023-06-04T07:28:12;4.45;;;2.30;;
52858;SDS011;38721;53.098;6.596;2023-06-04T07:30:38;7.57;;;2.20;;
52858;SDS011;38721;53.098;6.596;2023-06-04T07:33:04;5.05;;;2.08;;
52858;SDS011;38721;53.098;6.596;2023-06-04T07:35:29;7.10;;;2.20;;
52858;SDS011;38721;53.098;6.596;2023-06-04T07:37:55;6.30;;;2.00;;
52858;SDS011;38721;53.098;6.596;2023-06-04T07:40:21;3.28;;;1.90;;
52858;SDS011;38721;53.098;6.596;2023-06-04T07:42:46;6.35;;;2.38;;
52858;SDS011;38721;53.098;6.596;2023-06-04T07:45:15;5.55;;;2.10;;
52858;SDS011;38721;53.098;6.596;2023-06-04T07:47:42;5.47;;;1.70;;
52858;SDS011;38721;53.098;6.596;2023-06-04T07:50:08;4.15;;;1.90;;
52858;SDS011;38721;53.098;6.596;2023-06-04T07:52:34;4.75;;;1.80;;
52858;SDS011;38721;53.098;6.596;2023-06-04T07:54:59;5.55;;;2.20;;
52858;SDS011;38721;53.098;6.596;2023-06-04T07:57:25;6.47;;;2.00;;
52858;SDS011;38721;53.098;6.596;2023-06-04T07:59:51;6.53;;;2.10;;
52858;SDS011;38721;53.098;6.596;2023-06-04T08:02:17;3.45;;;2.08;;
52858;SDS011;38721;53.098;6.596;2023-06-04T08:04:43;3.50;;;1.63;;
52858;SDS011;38721;53.098;6.596;2023-06-04T08:07:10;4.85;;;2.10;;
52858;SDS011;38721;53.098;6.596;2023-06-04T08:09:37;5.88;;;2.42;;
52858;SDS011;38721;53.098;6.596;2023-06-04T08:12:05;5.45;;;1.90;;
52858;SDS011;38721;53.098;6.596;2023-06-04T08:14:31;3.00;;;1.60;;
52858;SDS011;38721;53.098;6.596;2023-06-04T08:16:57;3.70;;;1.80;;
52858;SDS011;38721;53.098;6.596;2023-06-04T08:19:23;8.73;;;2.00;;
52858;SDS011;38721;53.098;6.596;2023-06-04T08:21:49;3.00;;;1.90;;
52858;SDS011;38721;53.098;6.596;2023-06-04T08:24:15;3.20;;;1.90;;
52858;SDS011;38721;53.098;6.596;2023-06-04T08:26:44;3.10;;;1.75;;
52858;SDS011;38721;53.098;6.596;2023-06-04T08:29:09;4.22;;;1.95;;
52858;SDS011;38721;53.098;6.596;2023-06-04T08:31:35;3.45;;;1.80;;
52858;SDS011;38721;53.098;6.596;2023-06-04T08:34:01;3.85;;;1.77;;
52858;SDS011;38721;53.098;6.596;2023-06-04T08:36:36;5.45;;;1.58;;
52858;SDS011;38721;53.098;6.596;2023-06-04T08:39:01;3.60;;;1.50;;
52858;SDS011;38721;53.098;6.596;2023-06-04T08:41:28;5.70;;;1.67;;
52858;SDS011;38721;53.098;6.596;2023-06-04T08:43:57;4.38;;;1.95;;
52858;SDS011;38721;53.098;6.596;2023-06-04T08:46:23;6.90;;;2.40;;
52858;SDS011;38721;53.098;6.596;2023-06-04T08:48:50;6.03;;;1.58;;
52858;SDS011;38721;53.098;6.596;2023-06-04T08:51:17;4.22;;;1.65;;
52858;SDS011;38721;53.098;6.596;2023-06-04T08:53:43;3.28;;;1.70;;
52858;SDS011;38721;53.098;6.596;2023-06-04T08:56:12;5.47;;;1.67;;
52858;SDS011;38721;53.098;6.596;2023-06-04T08:58:38;3.75;;;1.40;;
52858;SDS011;38721;53.098;6.596;2023-06-04T09:01:09;5.10;;;2.13;;
52858;SDS011;38721;53.098;6.596;2023-06-04T09:03:36;4.25;;;1.80;;
52858;SDS011;38721;53.098;6.596;2023-06-04T09:06:02;3.65;;;1.70;;
52858;SDS011;38721;53.098;6.596;2023-06-04T09:08:31;5.68;;;1.80;;
52858;SDS011;38721;53.098;6.596;2023-06-04T09:10:58;4.88;;;1.42;;
52858;SDS011;38721;53.098;6.596;2023-06-04T09:13:28;4.30;;;1.80;;
52858;SDS011;38721;53.098;6.596;2023-06-04T09:15:59;5.32;;;1.92;;
52858;SDS011;38721;53.098;6.596;2023-06-04T09:18:29;4.28;;;1.90;;
52858;SDS011;38721;53.098;6.596;2023-06-04T09:21:05;3.30;;;1.83;;
52858;SDS011;38721;53.098;6.596;2023-06-04T09:23:43;3.95;;;1.80;;
52858;SDS011;38721;53.098;6.596;2023-06-04T09:26:10;4.43;;;1.85;;
52858;SDS011;38721;53.098;6.596;2023-06-04T09:28:42;3.28;;;1.55;;
52858;SDS011;38721;53.098;6.596;2023-06-04T09:31:16;3.83;;;1.63;;
52858;SDS011;38721;53.098;6.596;2023-06-04T09:33:45;3.78;;;1.75;;
52858;SDS011;38721;53.098;6.596;2023-06-04T09:36:12;5.82;;;1.90;;
52858;SDS011;38721;53.098;6.596;2023-06-04T09:38:38;3.65;;;1.60;;
52858;SDS011;38721;53.098;6.596;2023-06-04T09:41:10;4.32;;;1.83;;
52858;SDS011;38721;53.098;6.596;2023-06-04T09:43:36;2.45;;;1.40;;
52858;SDS011;38721;53.098;6.596;2023-06-04T09:46:12;3.28;;;1.60;;
52858;SDS011;38721;53.098;6.596;2023-06-04T09:48:39;4.47;;;1.48;;
52858;SDS011;38721;53.098;6.596;2023-06-04T09:51:12;4.05;;;1.67;;
52858;SDS011;38721;53.098;6.596;2023-06-04T09:53:40;2.97;;;1.70;;
52858;SDS011;38721;53.098;6.596;2023-06-04T09:56:06;3.53;;;1.77;;
52858;SDS011;38721;53.098;6.596;2023-06-04T09:58:37;4.32;;;1.98;;
52858;SDS011;38721;53.098;6.596;2023-06-04T10:01:06;4.07;;;1.83;;
52858;SDS011;38721;53.098;6.596;2023-06-04T10:03:33;4.25;;;1.75;;
52858;SDS011;38721;53.098;6.596;2023-06-04T10:06:02;2.92;;;1.60;;
52858;SDS011;38721;53.098;6.596;2023-06-04T10:08:30;4.40;;;1.70;;
52858;SDS011;38721;53.098;6.596;2023-06-04T10:10:58;4.13;;;1.80;;
52858;SDS011;38721;53.098;6.596;2023-06-04T10:13:29;3.92;;;1.80;;
52858;SDS011;38721;53.098;6.596;2023-06-04T10:15:57;3.47;;;1.40;;
52858;SDS011;38721;53.098;6.596;2023-06-04T10:18:24;5.28;;;1.80;;
52858;SDS011;38721;53.098;6.596;2023-06-04T10:20:52;2.85;;;1.65;;
52858;SDS011;38721;53.098;6.596;2023-06-04T10:23:20;8.45;;;1.85;;
52858;SDS011;38721;53.098;6.596;2023-06-04T10:25:48;3.35;;;1.90;;
52858;SDS011;38721;53.098;6.596;2023-06-04T10:28:17;3.65;;;1.60;;
52858;SDS011;38721;53.098;6.596;2023-06-04T10:30:45;2.83;;;1.50;;
52858;SDS011;38721;53.098;6.596;2023-06-04T10:33:11;2.30;;;1.50;;
52858;SDS011;38721;53.098;6.596;2023-06-04T10:35:38;3.53;;;1.67;;
52858;SDS011;38721;53.098;6.596;2023-06-04T10:38:07;5.07;;;1.58;;
52858;SDS011;38721;53.098;6.596;2023-06-04T10:43:08;5.35;;;1.80;;
52858;SDS011;38721;53.098;6.596;2023-06-04T10:45:35;2.50;;;1.42;;
52858;SDS011;38721;53.098;6.596;2023-06-04T10:48:05;5.45;;;2.00;;
52858;SDS011;38721;53.098;6.596;2023-06-04T10:50:32;3.83;;;1.58;;
52858;SDS011;38721;53.098;6.596;2023-06-04T10:52:59;3.83;;;1.77;;
52858;SDS011;38721;53.098;6.596;2023-06-04T10:55:28;3.90;;;1.98;;
52858;SDS011;38721;53.098;6.596;2023-06-04T10:57:58;5.05;;;1.70;;
52858;SDS011;38721;53.098;6.596;2023-06-04T11:00:38;3.58;;;1.70;;
52858;SDS011;38721;53.098;6.596;2023-06-04T11:03:07;4.60;;;1.60;;
52858;SDS011;38721;53.098;6.596;2023-06-04T11:05:38;3.22;;;1.83;;
52858;SDS011;38721;53.098;6.596;2023-06-04T11:08:10;6.03;;;1.85;;
52858;SDS011;38721;53.098;6.596;2023-06-04T11:10:40;4.30;;;1.85;;
52858;SDS011;38721;53.098;6.596;2023-06-04T11:13:07;3.20;;;1.80;;
52858;SDS011;38721;53.098;6.596;2023-06-04T11:15:39;2.80;;;1.70;;
52858;SDS011;38721;53.098;6.596;2023-06-04T11:18:19;3.80;;;1.50;;
52858;SDS011;38721;53.098;6.596;2023-06-04T11:20:49;4.82;;;1.65;;
52858;SDS011;38721;53.098;6.596;2023-06-04T11:23:24;3.92;;;1.63;;
52858;SDS011;38721;53.098;6.596;2023-06-04T11:25:51;2.97;;;1.63;;
52858;SDS011;38721;53.098;6.596;2023-06-04T11:28:18;3.75;;;1.80;;
52858;SDS011;38721;53.098;6.596;2023-06-04T11:30:57;2.88;;;1.70;;
52858;SDS011;38721;53.098;6.596;2023-06-04T11:33:24;3.58;;;1.80;;
52858;SDS011;38721;53.098;6.596;2023-06-04T11:35:50;3.83;;;1.58;;
52858;SDS011;38721;53.098;6.596;2023-06-04T11:38:15;2.58;;;1.65;;
52858;SDS011;38721;53.098;6.596;2023-06-04T11:40:41;3.47;;;1.48;;
52858;SDS011;38721;53.098;6.596;2023-06-04T11:43:11;4.75;;;1.90;;
52858;SDS011;38721;53.098;6.596;2023-06-04T11:45:38;3.60;;;1.38;;
52858;SDS011;38721;53.098;6.596;2023-06-04T11:48:10;2.70;;;1.70;;
52858;SDS011;38721;53.098;6.596;2023-06-04T11:50:36;5.75;;;1.77;;
52858;SDS011;38721;53.098;6.596;2023-06-04T11:53:02;5.63;;;1.95;;
52858;SDS011;38721;53.098;6.596;2023-06-04T11:55:28;2.40;;;1.65;;
52858;SDS011;38721;53.098;6.596;2023-06-04T11:57:57;4.75;;;2.13;;
52858;SDS011;38721;53.098;6.596;2023-06-04T12:00:23;4.57;;;2.22;;
52858;SDS011;38721;53.098;6.596;2023-06-04T12:02:50;5.80;;;1.98;;
52858;SDS011;38721;53.098;6.596;2023-06-04T12:05:17;2.65;;;1.50;;
52858;SDS011;38721;53.098;6.596;2023-06-04T12:07:44;4.30;;;1.77;;
52858;SDS011;38721;53.098;6.596;2023-06-04T12:10:11;3.45;;;1.50;;
52858;SDS011;38721;53.098;6.596;2023-06-04T12:12:37;3.95;;;1.67;;
52858;SDS011;38721;53.098;6.596;2023-06-04T12:15:03;2.50;;;1.40;;
52858;SDS011;38721;53.098;6.596;2023-06-04T12:17:31;4.20;;;1.70;;
52858;SDS011;38721;53.098;6.596;2023-06-04T12:19:57;3.55;;;1.60;;
52858;SDS011;38721;53.098;6.596;2023-06-04T12:22:23;3.83;;;1.60;;
52858;SDS011;38721;53.098;6.596;2023-06-04T12:24:52;2.90;;;1.50;;
52858;SDS011;38721;53.098;6.596;2023-06-04T12:27:19;2.38;;;1.33;;
52858;SDS011;38721;53.098;6.596;2023-06-04T12:32:24;5.90;;;1.98;;
52858;SDS011;38721;53.098;6.596;2023-06-04T12:34:50;3.72;;;1.90;;
52858;SDS011;38721;53.098;6.596;2023-06-04T12:37:15;3.65;;;1.63;;
52858;SDS011;38721;53.098;6.596;2023-06-04T12:39:41;5.53;;;1.95;;
52858;SDS011;38721;53.098;6.596;2023-06-04T12:42:09;2.60;;;1.63;;
52858;SDS011;38721;53.098;6.596;2023-06-04T12:44:35;3.80;;;1.75;;
52858;SDS011;38721;53.098;6.596;2023-06-04T12:47:02;3.83;;;1.70;;
52858;SDS011;38721;53.098;6.596;2023-06-04T12:49:28;4.07;;;1.65;;
52858;SDS011;38721;53.098;6.596;2023-06-04T12:51:54;2.78;;;1.80;;
52858;SDS011;38721;53.098;6.596;2023-06-04T12:54:19;4.28;;;1.70;;
52858;SDS011;38721;53.098;6.596;2023-06-04T12:56:45;3.92;;;1.75;;
52858;SDS011;38721;53.098;6.596;2023-06-04T12:59:11;5.97;;;2.05;;
52858;SDS011;38721;53.098;6.596;2023-06-04T13:01:36;4.93;;;1.70;;
52858;SDS011;38721;53.098;6.596;2023-06-04T13:04:05;3.75;;;1.80;;
52858;SDS011;38721;53.098;6.596;2023-06-04T13:06:33;4.28;;;1.70;;
52858;SDS011;38721;53.098;6.596;2023-06-04T13:09:01;4.25;;;1.90;;
52858;SDS011;38721;53.098;6.596;2023-06-04T13:11:27;2.72;;;1.70;;
52858;SDS011;38721;53.098;6.596;2023-06-04T13:13:52;3.15;;;1.70;;
52858;SDS011;38721;53.098;6.596;2023-06-04T13:16:18;2.88;;;1.45;;
52858;SDS011;38721;53.098;6.596;2023-06-04T13:18:44;6.15;;;1.88;;
52858;SDS011;38721;53.098;6.596;2023-06-04T13:21:10;4.70;;;1.80;;
52858;SDS011;38721;53.098;6.596;2023-06-04T13:23:35;4.00;;;1.92;;
52858;SDS011;38721;53.098;6.596;2023-06-04T13:26:01;3.75;;;1.70;;
52858;SDS011;38721;53.098;6.596;2023-06-04T13:28:27;5.00;;;1.90;;
52858;SDS011;38721;53.098;6.596;2023-06-04T13:30:52;7.18;;;1.92;;
52858;SDS011;38721;53.098;6.596;2023-06-04T13:33:18;5.63;;;2.00;;
52858;SDS011;38721;53.098;6.596;2023-06-04T13:35:45;3.53;;;1.73;;
52858;SDS011;38721;53.098;6.596;2023-06-04T13:38:11;4.25;;;1.80;;
52858;SDS011;38721;53.098;6.596;2023-06-04T13:40:37;4.85;;;1.88;;
52858;SDS011;38721;53.098;6.596;2023-06-04T13:43:04;3.92;;;1.60;;
52858;SDS011;38721;53.098;6.596;2023-06-04T13:45:30;4.07;;;1.58;;
52858;SDS011;38721;53.098;6.596;2023-06-04T13:47:56;3.03;;;1.80;;
52858;SDS011;38721;53.098;6.596;2023-06-04T13:50:27;3.95;;;1.65;;
52858;SDS011;38721;53.098;6.596;2023-06-04T13:52:53;6.13;;;1.90;;
52858;SDS011;38721;53.098;6.596;2023-06-04T13:55:22;4.72;;;1.50;;
52858;SDS011;38721;53.098;6.596;2023-06-04T13:57:47;3.70;;;1.60;;
52858;SDS011;38721;53.098;6.596;2023-06-04T14:00:13;3.85;;;1.90;;
52858;SDS011;38721;53.098;6.596;2023-06-04T14:02:40;3.58;;;1.90;;
52858;SDS011;38721;53.098;6.596;2023-06-04T14:05:06;4.93;;;1.95;;
52858;SDS011;38721;53.098;6.596;2023-06-04T14:07:32;3.42;;;1.50;;
52858;SDS011;38721;53.098;6.596;2023-06-04T14:09:57;5.13;;;1.70;;
52858;SDS011;38721;53.098;6.596;2023-06-04T14:12:23;4.63;;;1.75;;
52858;SDS011;38721;53.098;6.596;2023-06-04T14:14:49;3.67;;;1.85;;
52858;SDS011;38721;53.098;6.596;2023-06-04T14:17:15;4.28;;;1.83;;
52858;SDS011;38721;53.098;6.596;2023-06-04T14:19:41;3.30;;;1.60;;
52858;SDS011;38721;53.098;6.596;2023-06-04T14:22:09;3.53;;;2.00;;
52858;SDS011;38721;53.098;6.596;2023-06-04T14:24:41;3.72;;;1.80;;
52858;SDS011;38721;53.098;6.596;2023-06-04T14:27:07;5.20;;;1.88;;
52858;SDS011;38721;53.098;6.596;2023-06-04T14:29:34;3.15;;;1.50;;
52858;SDS011;38721;53.098;6.596;2023-06-04T14:32:01;4.32;;;1.73;;
52858;SDS011;38721;53.098;6.596;2023-06-04T14:34:30;3.78;;;1.70;;
52858;SDS011;38721;53.098;6.596;2023-06-04T14:36:57;5.55;;;1.90;;
52858;SDS011;38721;53.098;6.596;2023-06-04T14:39:24;5.57;;;1.90;;
52858;SDS011;38721;53.098;6.596;2023-06-04T14:41:51;2.78;;;1.70;;
52858;SDS011;38721;53.098;6.596;2023-06-04T14:44:17;3.20;;;1.75;;
52858;SDS011;38721;53.098;6.596;2023-06-04T14:46:43;3.60;;;1.80;;
52858;SDS011;38721;53.098;6.596;2023-06-04T14:49:09;5.72;;;1.60;;
52858;SDS011;38721;53.098;6.596;2023-06-04T14:51:35;4.93;;;1.70;;